createdAt,value
2022-08-22T00:00:18.986Z,95144.75
2022-08-22T00:01:18.971Z,95138.79
2022-08-22T00:02:19.004Z,95136.28
2022-08-22T00:02:44.020Z,95152.75
2022-08-22T00:02:45.978Z,95148.15
2022-08-22T00:02:52.480Z,95113.19
2022-08-22T00:02:52.802Z,95132.07
2022-08-22T00:02:53.533Z,95146.25
2022-08-22T00:02:56.363Z,95151.12
2022-08-22T00:02:56.596Z,95146.23
2022-08-22T00:02:59.808Z,95142.77
2022-08-22T00:03:04.820Z,95148.98
2022-08-22T00:03:09.032Z,95148.42
2022-08-22T00:04:18.951Z,95139.37
2022-08-22T00:05:18.938Z,95137.42
2022-08-22T00:06:18.950Z,95131.41
2022-08-22T00:07:18.920Z,95127.67
2022-08-22T00:08:18.914Z,95128.19
2022-08-22T00:09:18.927Z,95125.66
2022-08-22T00:10:25.185Z,95129.29
2022-08-22T00:11:18.897Z,95130.31
2022-08-22T00:12:18.887Z,95130.56
2022-08-22T00:13:18.864Z,95130.01
2022-08-22T00:14:18.879Z,95126.13
2022-08-22T00:15:42.612Z,95127.72
2022-08-22T00:16:18.846Z,95127.92
2022-08-22T00:17:18.826Z,95131.79
2022-08-22T00:18:18.839Z,95125.92
2022-08-22T00:19:18.819Z,95132.75
2022-08-22T00:20:18.807Z,95131.66
2022-08-22T00:21:18.807Z,95125.55
2022-08-22T00:22:18.806Z,95131.44
2022-08-22T00:23:18.775Z,95132.23
2022-08-22T00:24:18.781Z,95133.78
2022-08-22T00:25:24.698Z,95139.22
2022-08-22T00:26:18.749Z,95139.56
2022-08-22T00:27:18.754Z,95139.63
2022-08-22T00:28:18.743Z,95135.97
2022-08-22T00:29:18.724Z,95134.05
2022-08-22T00:30:18.712Z,95133.88
2022-08-22T00:31:18.700Z,95137.30
2022-08-22T00:32:18.706Z,95132.64
2022-08-22T00:33:18.710Z,95138.88
2022-08-22T00:34:18.686Z,95141.66
2022-08-22T00:35:18.675Z,95132.13
2022-08-22T00:36:18.676Z,95137.89
2022-08-22T00:37:18.643Z,95135.70
2022-08-22T00:38:18.642Z,95133.33
2022-08-22T00:39:18.735Z,95137.00
2022-08-22T00:40:18.704Z,95134.63
2022-08-22T00:41:18.619Z,95135.35
2022-08-22T00:42:32.155Z,95134.36
2022-08-22T00:43:18.599Z,95131.11
2022-08-22T00:44:18.586Z,95134.73
2022-08-22T00:45:18.599Z,95136.39
2022-08-22T00:46:18.580Z,95128.88
2022-08-22T00:47:18.570Z,95129.36
2022-08-22T00:48:18.549Z,95127.64
2022-08-22T00:49:18.550Z,95130.17
2022-08-22T00:50:18.545Z,95132.20
2022-08-22T00:51:18.538Z,95130.38
2022-08-22T00:52:18.525Z,95129.08
2022-08-22T00:53:18.513Z,95129.05
2022-08-22T00:54:18.492Z,95129.22
2022-08-22T00:55:18.482Z,95123.48
2022-08-22T00:56:18.470Z,95127.67
2022-08-22T00:57:18.495Z,95125.65
2022-08-22T00:58:18.452Z,95127.16
2022-08-22T00:59:23.818Z,95124.86
2022-08-22T01:00:18.432Z,95124.99
2022-08-22T01:01:18.485Z,95129.11
2022-08-22T01:02:18.428Z,95123.28
2022-08-22T01:03:18.431Z,95128.77
2022-08-22T01:04:18.394Z,95128.70
2022-08-22T01:05:18.407Z,95133.42
2022-08-22T01:06:18.374Z,95123.38
2022-08-22T01:07:18.389Z,95125.51
2022-08-22T01:08:18.365Z,95125.95
2022-08-22T01:09:18.389Z,95124.38
2022-08-22T01:10:18.370Z,95126.39
2022-08-22T01:11:18.349Z,95121.59
2022-08-22T01:12:18.328Z,95126.70
2022-08-22T01:13:18.341Z,95121.80
2022-08-22T01:14:18.309Z,95129.30
2022-08-22T01:15:18.308Z,95124.64
2022-08-22T01:16:18.301Z,95121.38
2022-08-22T01:17:18.302Z,95123.09
2022-08-22T01:18:18.282Z,95120.76
2022-08-22T01:19:18.283Z,95120.80
2022-08-22T01:20:18.264Z,95115.13
2022-08-22T01:21:20.701Z,95116.30
2022-08-22T01:22:18.246Z,95115.71
2022-08-22T01:23:18.231Z,95115.89
2022-08-22T01:24:18.225Z,95115.44
2022-08-22T01:25:18.226Z,95119.13
2022-08-22T01:26:19.406Z,95111.97
2022-08-22T01:27:18.202Z,95116.39
2022-08-22T01:28:18.193Z,95114.74
2022-08-22T01:29:18.187Z,95111.62
2022-08-22T01:30:18.179Z,95113.27
2022-08-22T01:31:18.155Z,95115.94
2022-08-22T01:32:18.144Z,95117.34
2022-08-22T01:33:18.154Z,95116.10
2022-08-22T01:34:18.136Z,95119.94
2022-08-22T01:35:18.116Z,95117.37
2022-08-22T01:36:18.105Z,95119.01
2022-08-22T01:37:18.118Z,95117.95
2022-08-22T01:38:18.103Z,95119.89
2022-08-22T01:39:18.110Z,95118.42
2022-08-22T01:40:18.114Z,95115.95
2022-08-22T01:41:18.080Z,95116.12
2022-08-22T01:42:18.061Z,95117.01
2022-08-22T01:43:18.048Z,95115.20
2022-08-22T01:44:18.044Z,95119.47
2022-08-22T01:45:18.059Z,95118.75
2022-08-22T01:46:20.596Z,95122.45
2022-08-22T01:47:18.023Z,95120.53
2022-08-22T01:48:18.000Z,95118.55
2022-08-22T01:49:18.006Z,95123.55
2022-08-22T01:50:17.981Z,95124.02
2022-08-22T01:51:17.991Z,95123.06
2022-08-22T01:52:19.519Z,95129.67
2022-08-22T01:53:17.963Z,95128.55
2022-08-22T01:54:17.943Z,95126.53
2022-08-22T01:55:17.943Z,95130.56
2022-08-22T01:56:17.938Z,95129.27
2022-08-22T01:57:17.944Z,95126.62
2022-08-22T01:58:17.913Z,95130.56
2022-08-22T01:59:17.918Z,95129.03
2022-08-22T02:00:17.909Z,95126.12
2022-08-22T02:01:17.943Z,95122.38
2022-08-22T02:02:17.875Z,95123.64
2022-08-22T02:03:17.895Z,95121.24
2022-08-22T02:04:17.856Z,95123.98
2022-08-22T02:05:17.869Z,95118.84
2022-08-22T02:06:17.837Z,95112.92
2022-08-22T02:07:17.853Z,95115.69
2022-08-22T02:08:17.818Z,95110.21
2022-08-22T02:09:17.820Z,95115.34
2022-08-22T02:10:17.812Z,95111.66
2022-08-22T02:11:17.813Z,95120.73
2022-08-22T02:12:21.755Z,95111.92
2022-08-22T02:13:17.793Z,95114.16
2022-08-22T02:14:17.774Z,95120.08
2022-08-22T02:15:17.785Z,95117.88
2022-08-22T02:16:17.754Z,95122.16
2022-08-22T02:17:17.755Z,95123.88
2022-08-22T02:18:17.735Z,95119.66
2022-08-22T02:19:17.722Z,95128.32
2022-08-22T02:20:17.715Z,95125.48
2022-08-22T02:21:17.723Z,95119.69
2022-08-22T02:22:17.697Z,95123.11
2022-08-22T02:23:17.697Z,95121.67
2022-08-22T02:24:17.677Z,95123.21
2022-08-22T02:25:17.666Z,95121.36
2022-08-22T02:26:17.751Z,95123.94
2022-08-22T02:27:17.661Z,95123.21
2022-08-22T02:28:17.648Z,95121.39
2022-08-22T02:29:17.627Z,95117.20
2022-08-22T02:30:17.617Z,95122.88
2022-08-22T02:31:17.620Z,95123.05
2022-08-22T02:32:17.610Z,95121.16
2022-08-22T02:33:17.607Z,95122.12
2022-08-22T02:34:17.591Z,95121.03
2022-08-22T02:35:17.584Z,95130.55
2022-08-22T02:36:17.572Z,95123.40
2022-08-22T02:37:17.569Z,95123.91
2022-08-22T02:38:17.540Z,95124.94
2022-08-22T02:39:17.557Z,95124.09
2022-08-22T02:40:17.559Z,95122.92
2022-08-22T02:41:17.521Z,95119.84
2022-08-22T02:42:17.514Z,95124.98
2022-08-22T02:43:17.501Z,95123.30
2022-08-22T02:44:17.489Z,95132.84
2022-08-22T02:45:17.604Z,95127.30
2022-08-22T02:46:17.462Z,95126.37
2022-08-22T02:47:17.462Z,95123.62
2022-08-22T02:48:17.443Z,95124.38
2022-08-22T02:49:17.457Z,95123.19
2022-08-22T02:50:17.488Z,95120.44
2022-08-22T02:51:17.444Z,95115.98
2022-08-22T02:52:17.414Z,95114.45
2022-08-22T02:53:17.405Z,95117.63
2022-08-22T02:54:17.395Z,95116.05
2022-08-22T02:55:17.399Z,95118.07
2022-08-22T02:56:17.389Z,95116.35
2022-08-22T02:57:17.430Z,95115.05
2022-08-22T02:58:17.357Z,95111.45
2022-08-22T02:59:17.348Z,95111.93
2022-08-22T03:00:31.426Z,95111.75
2022-08-22T03:01:17.380Z,95115.66
2022-08-22T03:02:17.332Z,95110.55
2022-08-22T03:03:17.329Z,95108.40
2022-08-22T03:04:17.313Z,95111.09
2022-08-22T03:05:17.302Z,95116.64
2022-08-22T03:06:17.281Z,95107.57
2022-08-22T03:07:17.280Z,95105.38
2022-08-22T03:08:17.274Z,95107.33
2022-08-22T03:09:17.261Z,95104.70
2022-08-22T03:10:17.255Z,95115.45
2022-08-22T03:11:17.241Z,95120.13
2022-08-22T03:12:17.230Z,95123.73
2022-08-22T03:13:17.240Z,95121.02
2022-08-22T03:14:17.203Z,95123.41
2022-08-22T03:15:17.224Z,95126.66
2022-08-22T03:16:17.192Z,95124.23
2022-08-22T03:17:17.185Z,95126.69
2022-08-22T03:18:17.173Z,95128.12
2022-08-22T03:19:18.548Z,95123.60
2022-08-22T03:20:17.167Z,95120.80
2022-08-22T03:21:17.165Z,95121.14
2022-08-22T03:22:17.150Z,95120.18
2022-08-22T03:23:17.140Z,95121.75
2022-08-22T03:24:17.131Z,95121.08
2022-08-22T03:25:17.107Z,95123.30
2022-08-22T03:26:17.111Z,95117.48
2022-08-22T03:27:32.744Z,95122.23
2022-08-22T03:28:17.078Z,95120.19
2022-08-22T03:29:17.090Z,95125.63
2022-08-22T03:30:17.059Z,95121.66
2022-08-22T03:31:17.060Z,95118.86
2022-08-22T03:32:17.069Z,95123.23
2022-08-22T03:33:17.090Z,95120.39
2022-08-22T03:34:17.021Z,95120.11
2022-08-22T03:35:17.020Z,95116.55
2022-08-22T03:36:17.001Z,95117.88
2022-08-22T03:37:17.002Z,95114.72
2022-08-22T03:38:16.985Z,95119.50
2022-08-22T03:39:17.285Z,95115.56
2022-08-22T03:40:17.031Z,95120.19
2022-08-22T03:41:16.963Z,95116.31
2022-08-22T03:42:16.953Z,95113.58
2022-08-22T03:43:16.943Z,95113.38
2022-08-22T03:44:16.932Z,95110.22
2022-08-22T03:45:16.935Z,95117.62
2022-08-22T03:46:18.278Z,95117.28
2022-08-22T03:47:16.929Z,95109.58
2022-08-22T03:48:16.908Z,95112.84
2022-08-22T03:49:16.907Z,95114.20
2022-08-22T03:50:16.876Z,95116.25
2022-08-22T03:51:16.900Z,95117.66
2022-08-22T03:52:16.856Z,95117.27
2022-08-22T03:53:19.070Z,95118.60
2022-08-22T03:54:16.851Z,95114.94
2022-08-22T03:55:16.838Z,95117.61
2022-08-22T03:56:16.831Z,95114.22
2022-08-22T03:57:16.853Z,95108.63
2022-08-22T03:58:27.614Z,95112.94
2022-08-22T03:59:16.821Z,95111.74
2022-08-22T04:00:16.790Z,95106.50
2022-08-22T04:01:16.851Z,95105.75
2022-08-22T04:02:26.213Z,95108.49
2022-08-22T04:03:16.804Z,95109.59
2022-08-22T04:04:16.752Z,95113.29
2022-08-22T04:05:16.750Z,95114.05
2022-08-22T04:06:16.746Z,95111.53
2022-08-22T04:07:31.721Z,95113.76
2022-08-22T04:08:16.723Z,95110.97
2022-08-22T04:09:16.736Z,95110.63
2022-08-22T04:10:16.702Z,95114.73
2022-08-22T04:11:16.694Z,95109.02
2022-08-22T04:12:16.699Z,95112.53
2022-08-22T04:13:16.690Z,95116.61
2022-08-22T04:14:16.666Z,95115.27
2022-08-22T04:15:16.689Z,95116.97
2022-08-22T04:16:16.647Z,95115.61
2022-08-22T04:17:16.647Z,95112.90
2022-08-22T04:18:16.627Z,95115.15
2022-08-22T04:19:16.626Z,95112.75
2022-08-22T04:20:16.749Z,95114.94
2022-08-22T04:21:16.641Z,95110.31
2022-08-22T04:22:16.602Z,95113.98
2022-08-22T04:23:16.588Z,95118.19
2022-08-22T04:24:16.583Z,95118.53
2022-08-22T04:25:16.581Z,95123.45
2022-08-22T04:26:16.551Z,95113.94
2022-08-22T04:27:16.584Z,95119.98
2022-08-22T04:28:16.545Z,95112.08
2022-08-22T04:29:16.547Z,95115.73
2022-08-22T04:30:16.521Z,95115.02
2022-08-22T04:31:16.512Z,95111.48
2022-08-22T04:32:16.501Z,95116.75
2022-08-22T04:33:16.512Z,95117.33
2022-08-22T04:34:16.494Z,95113.80
2022-08-22T04:35:16.488Z,95115.72
2022-08-22T04:36:16.463Z,95116.92
2022-08-22T04:37:16.475Z,95119.18
2022-08-22T04:38:16.447Z,95117.54
2022-08-22T04:39:16.455Z,95114.33
2022-08-22T04:40:16.485Z,95115.33
2022-08-22T04:41:16.417Z,95117.72
2022-08-22T04:42:32.268Z,95114.11
2022-08-22T04:43:16.416Z,95116.67
2022-08-22T04:44:16.399Z,95117.59
2022-08-22T04:45:16.409Z,95118.21
2022-08-22T04:46:16.367Z,95122.04
2022-08-22T04:47:16.380Z,95118.21
2022-08-22T04:48:16.353Z,95122.77
2022-08-22T04:49:16.361Z,95119.92
2022-08-22T04:50:16.329Z,95121.36
2022-08-22T04:51:16.348Z,95123.79
2022-08-22T04:52:16.319Z,95127.86
2022-08-22T04:53:16.310Z,95123.92
2022-08-22T04:54:16.325Z,95124.91
2022-08-22T04:55:16.290Z,95131.83
2022-08-22T04:56:16.334Z,95131.83
2022-08-22T04:57:16.292Z,95130.98
2022-08-22T04:58:16.275Z,95129.39
2022-08-22T04:59:16.252Z,95130.56
2022-08-22T05:00:16.252Z,95132.97
2022-08-22T05:01:16.282Z,95136.66
2022-08-22T05:02:16.237Z,95136.32
2022-08-22T05:03:16.248Z,95134.27
2022-08-22T05:04:16.218Z,95136.42
2022-08-22T05:05:16.208Z,95142.83
2022-08-22T05:06:16.198Z,95139.74
2022-08-22T05:07:16.198Z,95135.81
2022-08-22T05:08:16.166Z,95132.32
2022-08-22T05:09:16.539Z,95129.52
2022-08-22T05:10:16.169Z,95128.02
2022-08-22T05:11:16.136Z,95138.16
2022-08-22T05:12:16.137Z,95132.30
2022-08-22T05:13:16.131Z,95138.36
2022-08-22T05:14:16.119Z,95135.75
2022-08-22T05:15:16.108Z,95135.92
2022-08-22T05:16:16.112Z,95132.55
2022-08-22T05:17:17.160Z,95132.38
2022-08-22T05:18:16.092Z,95134.77
2022-08-22T05:19:17.035Z,95136.31
2022-08-22T05:20:16.060Z,95136.69
2022-08-22T05:21:16.074Z,95137.89
2022-08-22T05:22:16.050Z,95141.08
2022-08-22T05:23:17.551Z,95142.31
2022-08-22T05:24:16.043Z,95140.84
2022-08-22T05:25:16.025Z,95143.45
2022-08-22T05:26:16.011Z,95144.95
2022-08-22T05:27:16.033Z,95143.99
2022-08-22T05:28:16.006Z,95144.98
2022-08-22T05:29:15.973Z,95147.38
2022-08-22T05:30:15.987Z,95144.78
2022-08-22T05:31:15.969Z,95148.61
2022-08-22T05:32:15.978Z,95150.67
2022-08-22T05:33:15.958Z,95149.38
2022-08-22T05:34:15.950Z,95150.59
2022-08-22T05:35:15.939Z,95151.66
2022-08-22T05:36:15.925Z,95153.00
2022-08-22T05:37:15.914Z,95151.05
2022-08-22T05:38:15.921Z,95153.73
2022-08-22T05:39:15.920Z,95155.72
2022-08-22T05:40:15.948Z,95154.45
2022-08-22T05:41:15.881Z,95157.95
2022-08-22T05:42:15.878Z,95154.62
2022-08-22T05:43:15.858Z,95156.06
2022-08-22T05:44:15.863Z,95155.76
2022-08-22T05:45:15.857Z,95160.08
2022-08-22T05:46:15.830Z,95153.95
2022-08-22T05:47:15.834Z,95149.72
2022-08-22T05:48:15.824Z,95148.04
2022-08-22T05:49:15.808Z,95152.23
2022-08-22T05:50:15.807Z,95145.19
2022-08-22T05:51:15.802Z,95146.42
2022-08-22T05:52:15.784Z,95147.62
2022-08-22T05:53:15.775Z,95153.59
2022-08-22T05:54:15.761Z,95153.09
2022-08-22T05:55:15.757Z,95150.11
2022-08-22T05:56:15.743Z,95154.09
2022-08-22T05:57:15.751Z,95149.17
2022-08-22T05:58:15.737Z,95146.62
2022-08-22T05:59:15.709Z,95143.59
2022-08-22T06:00:15.705Z,95144.95
2022-08-22T06:01:15.877Z,95146.41
2022-08-22T06:02:15.686Z,95147.29
2022-08-22T06:03:15.697Z,95146.55
2022-08-22T06:04:15.680Z,95147.62
2022-08-22T06:05:15.646Z,95153.77
2022-08-22T06:06:15.647Z,95150.38
2022-08-22T06:07:15.636Z,95150.10
2022-08-22T06:08:15.627Z,95157.60
2022-08-22T06:09:15.804Z,95159.75
2022-08-22T06:10:15.609Z,95162.28
2022-08-22T06:11:15.597Z,95158.39
2022-08-22T06:12:21.706Z,95152.94
2022-08-22T06:13:15.593Z,95149.46
2022-08-22T06:14:15.572Z,95149.50
2022-08-22T06:15:15.582Z,95148.18
2022-08-22T06:16:15.565Z,95146.41
2022-08-22T06:17:15.554Z,95149.01
2022-08-22T06:18:15.578Z,95147.32
2022-08-22T06:19:19.970Z,95145.15
2022-08-22T06:20:15.526Z,95143.32
2022-08-22T06:21:15.516Z,95144.12
2022-08-22T06:22:18.749Z,95146.23
2022-08-22T06:23:15.483Z,95147.06
2022-08-22T06:24:15.483Z,95145.59
2022-08-22T06:25:15.464Z,95139.92
2022-08-22T06:26:20.759Z,95137.61
2022-08-22T06:27:15.466Z,95138.12
2022-08-22T06:28:15.435Z,95139.62
2022-08-22T06:29:15.426Z,95138.94
2022-08-22T06:30:15.441Z,95136.91
2022-08-22T06:31:15.406Z,95139.17
2022-08-22T06:32:15.407Z,95141.00
2022-08-22T06:33:15.397Z,95144.91
2022-08-22T06:34:15.400Z,95144.20
2022-08-22T06:35:15.376Z,95146.45
2022-08-22T06:36:15.522Z,95145.28
2022-08-22T06:37:15.360Z,95143.39
2022-08-22T06:38:15.363Z,95139.23
2022-08-22T06:39:15.353Z,95141.64
2022-08-22T06:40:15.469Z,95140.24
2022-08-22T06:41:15.334Z,95139.88
2022-08-22T06:42:16.960Z,95143.11
2022-08-22T06:43:15.305Z,95148.62
2022-08-22T06:44:15.313Z,95143.11
2022-08-22T06:45:15.302Z,95147.52
2022-08-22T06:46:15.296Z,95142.70
2022-08-22T06:47:15.271Z,95149.53
2022-08-22T06:48:15.264Z,95149.36
2022-08-22T06:49:15.257Z,95148.77
2022-08-22T06:50:15.257Z,95143.22
2022-08-22T06:51:15.258Z,95145.55
2022-08-22T06:52:15.233Z,95148.53
2022-08-22T06:53:15.224Z,95144.11
2022-08-22T06:54:15.213Z,95145.49
2022-08-22T06:55:15.196Z,95144.71
2022-08-22T06:56:15.200Z,95145.45
2022-08-22T06:57:15.468Z,95152.09
2022-08-22T06:58:15.178Z,95151.55
2022-08-22T06:59:15.157Z,95157.25
2022-08-22T07:00:15.158Z,95152.70
2022-08-22T07:01:15.150Z,95150.30
2022-08-22T07:02:15.160Z,95152.88
2022-08-22T07:03:15.150Z,95150.84
2022-08-22T07:04:15.151Z,95149.80
2022-08-22T07:05:15.112Z,95151.05
2022-08-22T07:06:15.100Z,95149.33
2022-08-22T07:07:15.104Z,95146.00
2022-08-22T07:08:15.104Z,95154.01
2022-08-22T07:09:15.082Z,95148.94
2022-08-22T07:10:15.071Z,95148.31
2022-08-22T07:11:15.072Z,95153.03
2022-08-22T07:12:15.073Z,95155.55
2022-08-22T07:13:15.042Z,95159.45
2022-08-22T07:14:15.047Z,95155.92
2022-08-22T07:15:15.047Z,95149.81
2022-08-22T07:16:15.023Z,95158.27
2022-08-22T07:17:15.019Z,95146.71
2022-08-22T07:18:15.018Z,95153.91
2022-08-22T07:19:14.987Z,95152.59
2022-08-22T07:20:14.986Z,95157.30
2022-08-22T07:21:15.106Z,95155.30
2022-08-22T07:22:14.967Z,95147.50
2022-08-22T07:23:14.948Z,95150.73
2022-08-22T07:24:14.962Z,95150.98
2022-08-22T07:25:14.952Z,95154.82
2022-08-22T07:26:14.929Z,95149.45
2022-08-22T07:27:15.914Z,95152.00
2022-08-22T07:28:16.313Z,95150.91
2022-08-22T07:29:14.913Z,95152.16
2022-08-22T07:30:14.911Z,95150.55
2022-08-22T07:31:14.906Z,95149.34
2022-08-22T07:32:14.896Z,95150.00
2022-08-22T07:33:25.786Z,95145.91
2022-08-22T07:34:14.876Z,95140.89
2022-08-22T07:35:14.857Z,95138.50
2022-08-22T07:36:14.843Z,95140.73
2022-08-22T07:37:14.833Z,95136.61
2022-08-22T07:38:14.838Z,95138.21
2022-08-22T07:39:14.836Z,95145.66
2022-08-22T07:40:14.881Z,95138.45
2022-08-22T07:41:14.795Z,95142.59
2022-08-22T07:42:14.809Z,95142.14
2022-08-22T07:43:14.790Z,95140.47
2022-08-22T07:44:14.790Z,95144.48
2022-08-22T07:45:14.779Z,95138.69
2022-08-22T07:46:14.757Z,95142.25
2022-08-22T07:47:14.761Z,95146.86
2022-08-22T07:48:22.650Z,95144.58
2022-08-22T07:49:14.728Z,95148.83
2022-08-22T07:50:14.749Z,95148.87
2022-08-22T07:51:14.720Z,95146.43
2022-08-22T07:52:14.710Z,95150.66
2022-08-22T07:53:15.571Z,95146.89
2022-08-22T07:54:14.704Z,95144.72
2022-08-22T07:55:14.675Z,95145.09
2022-08-22T07:56:14.683Z,95145.51
2022-08-22T07:57:14.672Z,95138.02
2022-08-22T07:58:14.652Z,95143.82
2022-08-22T07:59:14.645Z,95141.61
2022-08-22T08:00:14.633Z,95137.48
2022-08-22T08:01:14.708Z,95138.52
2022-08-22T08:02:14.635Z,95138.73
2022-08-22T08:03:14.614Z,95135.38
2022-08-22T08:04:14.609Z,95139.11
2022-08-22T08:05:14.599Z,95142.39
2022-08-22T08:06:14.604Z,95144.36
2022-08-22T08:07:14.566Z,95145.58
2022-08-22T08:08:15.674Z,95145.02
2022-08-22T08:09:14.591Z,95144.84
2022-08-22T08:10:14.549Z,95150.24
2022-08-22T08:11:14.541Z,95141.30
2022-08-22T08:12:14.550Z,95151.23
2022-08-22T08:13:14.518Z,95144.44
2022-08-22T08:14:14.509Z,95142.00
2022-08-22T08:15:14.520Z,95140.54
2022-08-22T08:16:14.504Z,95142.39
2022-08-22T08:17:14.493Z,95143.85
2022-08-22T08:18:14.494Z,95142.33
2022-08-22T08:19:14.462Z,95139.66
2022-08-22T08:20:14.475Z,95145.73
2022-08-22T08:21:14.486Z,95145.31
2022-08-22T08:22:14.442Z,95144.80
2022-08-22T08:23:14.437Z,95149.02
2022-08-22T08:24:14.424Z,95145.61
2022-08-22T08:25:14.427Z,95144.34
2022-08-22T08:26:14.414Z,95139.12
2022-08-22T08:27:14.405Z,95141.94
2022-08-22T08:28:14.396Z,95140.39
2022-08-22T08:29:14.390Z,95148.90
2022-08-22T08:30:15.618Z,95140.38
2022-08-22T08:31:14.370Z,95139.38
2022-08-22T08:32:14.358Z,95141.06
2022-08-22T08:33:25.808Z,95138.58
2022-08-22T08:34:14.338Z,95139.48
2022-08-22T08:35:14.328Z,95142.13
2022-08-22T08:36:14.319Z,95137.83
2022-08-22T08:37:14.310Z,95136.77
2022-08-22T08:38:14.313Z,95137.47
2022-08-22T08:39:14.430Z,95138.70
2022-08-22T08:40:14.373Z,95142.75
2022-08-22T08:41:14.271Z,95141.72
2022-08-22T08:42:14.284Z,95138.37
2022-08-22T08:43:14.265Z,95137.70
2022-08-22T08:44:14.266Z,95144.08
2022-08-22T08:45:14.263Z,95138.07
2022-08-22T08:46:14.234Z,95142.70
2022-08-22T08:47:14.237Z,95141.25
2022-08-22T08:48:14.213Z,95136.86
2022-08-22T08:49:14.204Z,95140.47
2022-08-22T08:50:14.215Z,95142.36
2022-08-22T08:51:14.208Z,95140.30
2022-08-22T08:52:14.189Z,95137.02
2022-08-22T08:53:14.179Z,95137.59
2022-08-22T08:54:14.166Z,95134.12
2022-08-22T08:55:22.017Z,95140.90
2022-08-22T08:56:19.486Z,95140.41
2022-08-22T08:57:14.158Z,95140.11
2022-08-22T08:58:14.142Z,95126.02
2022-08-22T08:59:14.131Z,95133.20
2022-08-22T09:00:14.120Z,95135.06
2022-08-22T09:01:14.132Z,95129.10
2022-08-22T09:02:20.696Z,95126.61
2022-08-22T09:03:15.817Z,95130.00
2022-08-22T09:04:15.154Z,95126.86
2022-08-22T09:05:14.074Z,95128.08
2022-08-22T09:06:14.061Z,95124.98
2022-08-22T09:07:14.042Z,95132.86
2022-08-22T09:08:14.057Z,95134.67
2022-08-22T09:09:14.057Z,95133.66
2022-08-22T09:10:14.036Z,95132.99
2022-08-22T09:11:14.248Z,95130.75
2022-08-22T09:12:14.026Z,95133.02
2022-08-22T09:13:13.995Z,95131.14
2022-08-22T09:14:14.174Z,95132.38
2022-08-22T09:15:14.412Z,95133.91
2022-08-22T09:16:13.977Z,95130.75
2022-08-22T09:17:13.970Z,95126.39
2022-08-22T09:18:13.970Z,95130.23
2022-08-22T09:19:13.953Z,95127.98
2022-08-22T09:21:13.939Z,95130.44
2022-08-22T09:22:14.518Z,95130.33
2022-08-22T09:23:13.922Z,95131.09
2022-08-22T09:24:14.141Z,95130.40
2022-08-22T09:25:13.902Z,95132.30
2022-08-22T09:26:13.880Z,95127.80
2022-08-22T09:27:13.893Z,95130.28
2022-08-22T09:28:13.900Z,95129.70
2022-08-22T09:29:13.865Z,95126.75
2022-08-22T09:30:13.843Z,95123.30
2022-08-22T09:31:16.975Z,95127.12
2022-08-22T09:32:13.845Z,95126.78
2022-08-22T09:33:13.844Z,95127.66
2022-08-22T09:34:13.818Z,95128.72
2022-08-22T09:35:13.819Z,95133.00
2022-08-22T09:36:13.806Z,95130.31
2022-08-22T09:37:14.092Z,95135.84
2022-08-22T09:38:13.790Z,95128.50
2022-08-22T09:39:13.796Z,95126.33
2022-08-22T09:40:17.238Z,95132.08
2022-08-22T09:41:13.747Z,95131.81
2022-08-22T09:42:13.751Z,95127.66
2022-08-22T09:43:13.741Z,95126.17
2022-08-22T09:44:13.718Z,95124.27
2022-08-22T09:45:13.757Z,95131.02
2022-08-22T09:46:13.717Z,95129.48
2022-08-22T09:47:13.713Z,95126.27
2022-08-22T09:48:13.703Z,95125.77
2022-08-22T09:49:13.681Z,95121.86
2022-08-22T09:50:13.673Z,95123.27
2022-08-22T09:51:31.822Z,95124.66
2022-08-22T09:52:15.602Z,95120.31
2022-08-22T09:53:13.662Z,95122.40
2022-08-22T09:54:13.647Z,95119.11
2022-08-22T09:55:16.009Z,95118.41
2022-08-22T09:56:15.715Z,95118.76
2022-08-22T09:57:14.042Z,95121.45
2022-08-22T09:58:13.610Z,95119.11
2022-08-22T09:59:13.595Z,95113.20
2022-08-22T10:00:13.594Z,95114.92
2022-08-22T10:01:13.640Z,95113.55
2022-08-22T10:02:15.801Z,95116.17
2022-08-22T10:03:13.567Z,95112.97
2022-08-22T10:04:13.547Z,95116.77
2022-08-22T10:05:13.553Z,95118.23
2022-08-22T10:06:13.527Z,95110.45
2022-08-22T10:07:13.527Z,95105.59
2022-08-22T10:08:13.538Z,95113.67
2022-08-22T10:09:13.520Z,95109.67
2022-08-22T10:10:13.504Z,95108.28
2022-08-22T10:11:13.490Z,95110.34
2022-08-22T10:12:13.482Z,95105.06
2022-08-22T10:13:13.485Z,95104.38
2022-08-22T10:14:13.462Z,95104.88
2022-08-22T10:15:13.483Z,95110.78
2022-08-22T10:16:13.440Z,95113.03
2022-08-22T10:17:13.447Z,95110.26
2022-08-22T10:18:13.424Z,95110.52
2022-08-22T10:19:13.425Z,95102.22
2022-08-22T10:20:13.404Z,95112.25
2022-08-22T10:21:13.426Z,95107.58
2022-08-22T10:22:13.386Z,95108.53
2022-08-22T10:23:13.399Z,95103.30
2022-08-22T10:24:13.367Z,95111.38
2022-08-22T10:25:13.368Z,95106.61
2022-08-22T10:26:13.351Z,95100.56
2022-08-22T10:27:13.373Z,95104.53
2022-08-22T10:28:13.377Z,95107.30
2022-08-22T10:29:13.339Z,95108.77
2022-08-22T10:30:13.458Z,95102.27
2022-08-22T10:31:13.310Z,95108.09
2022-08-22T10:32:14.611Z,95108.50
2022-08-22T10:33:13.312Z,95107.80
2022-08-22T10:34:13.295Z,95107.98
2022-08-22T10:35:13.293Z,95108.48
2022-08-22T10:36:13.263Z,95109.70
2022-08-22T10:37:13.262Z,95109.36
2022-08-22T10:38:13.253Z,95107.95
2022-08-22T10:39:13.264Z,95114.90
2022-08-22T10:40:13.277Z,95112.64
2022-08-22T10:41:13.238Z,95113.45
2022-08-22T10:42:13.215Z,95111.98
2022-08-22T10:43:13.208Z,95115.88
2022-08-22T10:44:13.195Z,95111.79
2022-08-22T10:45:13.228Z,95117.02
2022-08-22T10:46:13.843Z,95115.80
2022-08-22T10:47:13.176Z,95113.73
2022-08-22T10:48:13.158Z,95113.03
2022-08-22T10:49:17.907Z,95111.27
2022-08-22T10:50:13.149Z,95119.26
2022-08-22T10:51:13.171Z,95112.31
2022-08-22T10:52:15.638Z,95115.77
2022-08-22T10:53:13.121Z,95116.73
2022-08-22T10:54:13.124Z,95117.17
2022-08-22T10:55:13.114Z,95114.45
2022-08-22T10:56:13.105Z,95115.60
2022-08-22T10:57:13.115Z,95120.62
2022-08-22T10:58:13.078Z,95118.53
2022-08-22T10:59:13.086Z,95116.53
2022-08-22T11:00:13.070Z,95114.19
2022-08-22T11:01:37.515Z,95115.39
2022-08-22T11:02:13.034Z,95115.74
2022-08-22T11:03:18.709Z,95112.62
2022-08-22T11:04:13.037Z,95111.77
2022-08-22T11:05:13.029Z,95111.59
2022-08-22T11:06:13.019Z,95120.16
2022-08-22T11:07:12.997Z,95112.09
2022-08-22T11:08:13.001Z,95111.48
2022-08-22T11:09:13.010Z,95114.86
2022-08-22T11:10:12.981Z,95113.54
2022-08-22T11:11:12.982Z,95110.84
2022-08-22T11:12:12.969Z,95111.38
2022-08-22T11:13:12.962Z,95112.31
2022-08-22T11:14:12.943Z,95108.23
2022-08-22T11:15:12.945Z,95111.52
2022-08-22T11:16:12.919Z,95111.70
2022-08-22T11:17:30.790Z,95107.73
2022-08-22T11:18:13.276Z,95111.16
2022-08-22T11:19:15.652Z,95114.52
2022-08-22T11:20:12.896Z,95105.14
2022-08-22T11:21:12.902Z,95114.07
2022-08-22T11:22:12.877Z,95113.89
2022-08-22T11:23:12.854Z,95111.30
2022-08-22T11:24:17.162Z,95113.90
2022-08-22T11:25:12.846Z,95110.44
2022-08-22T11:26:12.825Z,95113.25
2022-08-22T11:27:13.241Z,95115.66
2022-08-22T11:28:12.820Z,95118.86
2022-08-22T11:29:13.929Z,95108.04
2022-08-22T11:30:18.228Z,95112.46
2022-08-22T11:31:12.831Z,95115.22
2022-08-22T11:32:12.781Z,95110.65
2022-08-22T11:33:13.794Z,95109.42
2022-08-22T11:34:12.759Z,95109.00
2022-08-22T11:35:12.763Z,95104.07
2022-08-22T11:36:12.810Z,95099.03